sensor_id;sensor_type;location;lat;lon;timestamp;pressure;altitude;pressure_sealevel;temperature;humidity
53340;BME280;46212;50.258;19.062;2022-07-22T00:02:17;98567.97;;;20.33;61.70
53340;BME280;46212;50.258;19.062;2022-07-22T00:04:42;98576.91;;;20.31;62.28
53340;BME280;46212;50.258;19.062;2022-07-22T00:07:07;98590.03;;;20.12;62.36
53340;BME280;46212;50.258;19.062;2022-07-22T00:09:32;98587.00;;;20.45;61.64
53340;BME280;46212;50.258;19.062;2022-07-22T00:11:58;98591.66;;;20.37;62.13
53340;BME280;46212;50.258;19.062;2022-07-22T00:14:23;98589.84;;;20.40;63.04
53340;BME280;46212;50.258;19.062;2022-07-22T00:16:48;98577.00;;;20.50;62.70
53340;BME280;46212;50.258;19.062;2022-07-22T00:19:14;98601.03;;;20.45;62.50
53340;BME280;46212;50.258;19.062;2022-07-22T00:21:39;98596.56;;;20.55;62.60
53340;BME280;46212;50.258;19.062;2022-07-22T00:24:04;98591.22;;;20.57;62.29
53340;BME280;46212;50.258;19.062;2022-07-22T00:26:30;98597.88;;;20.54;62.58
53340;BME280;46212;50.258;19.062;2022-07-22T00:28:55;98595.94;;;20.44;63.11
53340;BME280;46212;50.258;19.062;2022-07-22T00:31:20;98591.84;;;20.45;62.46
53340;BME280;46212;50.258;19.062;2022-07-22T00:33:45;98595.53;;;20.58;60.93
53340;BME280;46212;50.258;19.062;2022-07-22T00:36:11;98591.34;;;20.71;60.38
53340;BME280;46212;50.258;19.062;2022-07-22T00:38:37;98591.81;;;20.75;62.01
53340;BME280;46212;50.258;19.062;2022-07-22T00:41:02;98591.03;;;20.74;62.38
53340;BME280;46212;50.258;19.062;2022-07-22T00:43:28;98595.94;;;20.68;62.43
53340;BME280;46212;50.258;19.062;2022-07-22T00:45:53;98606.78;;;20.23;64.25
53340;BME280;46212;50.258;19.062;2022-07-22T00:48:18;98598.72;;;20.08;64.96
53340;BME280;46212;50.258;19.062;2022-07-22T00:50:44;98595.56;;;20.23;63.82
53340;BME280;46212;50.258;19.062;2022-07-22T00:53:09;98596.91;;;20.17;64.05
53340;BME280;46212;50.258;19.062;2022-07-22T00:55:35;98596.53;;;19.96;64.15
53340;BME280;46212;50.258;19.062;2022-07-22T00:58:02;98590.50;;;19.81;64.01
53340;BME280;46212;50.258;19.062;2022-07-22T01:00:28;98591.78;;;19.80;64.16
53340;BME280;46212;50.258;19.062;2022-07-22T01:02:53;98597.06;;;19.94;63.95
53340;BME280;46212;50.258;19.062;2022-07-22T01:05:18;98593.41;;;20.05;63.39
53340;BME280;46212;50.258;19.062;2022-07-22T01:07:44;98604.09;;;20.06;63.23
53340;BME280;46212;50.258;19.062;2022-07-22T01:10:09;98605.59;;;19.72;64.63
53340;BME280;46212;50.258;19.062;2022-07-22T01:12:35;98598.19;;;19.75;63.97
53340;BME280;46212;50.258;19.062;2022-07-22T01:15:01;98615.84;;;19.58;65.07
53340;BME280;46212;50.258;19.062;2022-07-22T01:17:26;98615.31;;;19.60;64.94
53340;BME280;46212;50.258;19.062;2022-07-22T01:19:51;98607.81;;;19.79;64.54
53340;BME280;46212;50.258;19.062;2022-07-22T01:22:16;98600.41;;;19.87;64.08
53340;BME280;46212;50.258;19.062;2022-07-22T01:24:42;98604.47;;;19.86;64.10
53340;BME280;46212;50.258;19.062;2022-07-22T01:27:07;98594.59;;;19.80;64.46
53340;BME280;46212;50.258;19.062;2022-07-22T01:29:32;98594.13;;;19.70;64.72
53340;BME280;46212;50.258;19.062;2022-07-22T01:31:57;98586.56;;;19.59;65.38
53340;BME280;46212;50.258;19.062;2022-07-22T01:34:23;98595.44;;;19.69;64.82
53340;BME280;46212;50.258;19.062;2022-07-22T01:36:48;98587.75;;;19.70;64.67
53340;BME280;46212;50.258;19.062;2022-07-22T01:39:13;98584.81;;;19.97;64.33
53340;BME280;46212;50.258;19.062;2022-07-22T01:41:39;98583.31;;;19.91;64.38
53340;BME280;46212;50.258;19.062;2022-07-22T01:44:04;98589.66;;;19.50;65.71
53340;BME280;46212;50.258;19.062;2022-07-22T01:46:29;98596.84;;;19.40;67.07
53340;BME280;46212;50.258;19.062;2022-07-22T01:48:55;98587.75;;;19.18;66.48
53340;BME280;46212;50.258;19.062;2022-07-22T01:51:21;98590.78;;;19.20;66.47
53340;BME280;46212;50.258;19.062;2022-07-22T01:53:46;98593.84;;;19.16;66.49
53340;BME280;46212;50.258;19.062;2022-07-22T01:56:12;98590.50;;;19.23;66.10
53340;BME280;46212;50.258;19.062;2022-07-22T01:58:37;98601.69;;;19.34;65.95
53340;BME280;46212;50.258;19.062;2022-07-22T02:01:02;98591.72;;;19.44;65.76
53340;BME280;46212;50.258;19.062;2022-07-22T02:03:27;98588.41;;;19.35;65.78
53340;BME280;46212;50.258;19.062;2022-07-22T02:05:52;98600.66;;;19.32;66.05
53340;BME280;46212;50.258;19.062;2022-07-22T02:08:18;98614.72;;;19.15;67.12
53340;BME280;46212;50.258;19.062;2022-07-22T02:10:43;98598.19;;;19.12;66.96
53340;BME280;46212;50.258;19.062;2022-07-22T02:13:08;98597.41;;;19.17;67.18
53340;BME280;46212;50.258;19.062;2022-07-22T02:15:33;98606.31;;;19.21;67.73
53340;BME280;46212;50.258;19.062;2022-07-22T02:17:59;98606.81;;;19.19;68.26
53340;BME280;46212;50.258;19.062;2022-07-22T02:20:24;98608.56;;;19.28;67.49
53340;BME280;46212;50.258;19.062;2022-07-22T02:22:49;98612.13;;;19.28;67.38
53340;BME280;46212;50.258;19.062;2022-07-22T02:25:14;98611.94;;;19.15;67.68
53340;BME280;46212;50.258;19.062;2022-07-22T02:27:40;98612.88;;;19.29;67.67
53340;BME280;46212;50.258;19.062;2022-07-22T02:30:06;98627.69;;;19.18;68.04
53340;BME280;46212;50.258;19.062;2022-07-22T02:32:32;98627.22;;;19.08;68.43
53340;BME280;46212;50.258;19.062;2022-07-22T02:34:57;98633.56;;;19.03;67.99
53340;BME280;46212;50.258;19.062;2022-07-22T02:37:23;98638.69;;;18.99;68.05
53340;BME280;46212;50.258;19.062;2022-07-22T02:39:49;98659.00;;;19.11;68.31
53340;BME280;46212;50.258;19.062;2022-07-22T02:42:14;98664.59;;;19.17;68.16
53340;BME280;46212;50.258;19.062;2022-07-22T02:44:39;98665.88;;;19.21;68.01
53340;BME280;46212;50.258;19.062;2022-07-22T02:47:05;98669.91;;;19.26;67.82
53340;BME280;46212;50.258;19.062;2022-07-22T02:49:30;98678.84;;;19.24;68.29
53340;BME280;46212;50.258;19.062;2022-07-22T02:51:56;98666.81;;;19.35;68.25
53340;BME280;46212;50.258;19.062;2022-07-22T02:54:21;98662.50;;;19.45;67.86
53340;BME280;46212;50.258;19.062;2022-07-22T02:56:46;98672.88;;;19.61;67.68
53340;BME280;46212;50.258;19.062;2022-07-22T02:59:11;98666.97;;;19.70;67.22
53340;BME280;46212;50.258;19.062;2022-07-22T03:01:37;98664.94;;;19.71;67.26
53340;BME280;46212;50.258;19.062;2022-07-22T03:04:02;98659.31;;;19.82;67.43
53340;BME280;46212;50.258;19.062;2022-07-22T03:06:27;98653.16;;;19.83;67.16
53340;BME280;46212;50.258;19.062;2022-07-22T03:08:52;98657.22;;;19.82;67.22
53340;BME280;46212;50.258;19.062;2022-07-22T03:11:18;98653.69;;;19.82;67.45
53340;BME280;46212;50.258;19.062;2022-07-22T03:13:43;98647.22;;;19.98;67.23
53340;BME280;46212;50.258;19.062;2022-07-22T03:16:08;98660.44;;;20.03;66.96
53340;BME280;46212;50.258;19.062;2022-07-22T03:18:34;98665.78;;;20.06;66.96
53340;BME280;46212;50.258;19.062;2022-07-22T03:20:59;98672.59;;;20.17;66.69
53340;BME280;46212;50.258;19.062;2022-07-22T03:23:24;98689.91;;;20.26;66.78
53340;BME280;46212;50.258;19.062;2022-07-22T03:25:49;98698.13;;;20.07;67.67
53340;BME280;46212;50.258;19.062;2022-07-22T03:28:15;98680.00;;;20.14;67.69
53340;BME280;46212;50.258;19.062;2022-07-22T03:30:40;98690.66;;;20.21;68.08
53340;BME280;46212;50.258;19.062;2022-07-22T03:33:05;98699.56;;;20.31;67.78
53340;BME280;46212;50.258;19.062;2022-07-22T03:35:30;98710.44;;;20.40;67.85
53340;BME280;46212;50.258;19.062;2022-07-22T03:37:56;98709.13;;;20.46;67.30
53340;BME280;46212;50.258;19.062;2022-07-22T03:40:21;98713.03;;;20.38;68.18
53340;BME280;46212;50.258;19.062;2022-07-22T03:42:46;98712.22;;;20.43;67.90
53340;BME280;46212;50.258;19.062;2022-07-22T03:45:12;98715.28;;;20.45;68.31
53340;BME280;46212;50.258;19.062;2022-07-22T03:47:37;98721.16;;;20.41;68.39
53340;BME280;46212;50.258;19.062;2022-07-22T03:50:03;98713.53;;;20.42;68.25
53340;BME280;46212;50.258;19.062;2022-07-22T03:52:29;98714.84;;;20.35;68.70
53340;BME280;46212;50.258;19.062;2022-07-22T03:54:54;98708.13;;;20.44;68.65
53340;BME280;46212;50.258;19.062;2022-07-22T03:57:19;98710.94;;;20.44;68.73
53340;BME280;46212;50.258;19.062;2022-07-22T03:59:45;98709.31;;;20.59;68.53
53340;BME280;46212;50.258;19.062;2022-07-22T04:02:10;98715.28;;;20.75;67.51
53340;BME280;46212;50.258;19.062;2022-07-22T04:04:36;98706.88;;;20.75;67.93
53340;BME280;46212;50.258;19.062;2022-07-22T04:07:01;98708.06;;;20.85;67.50
53340;BME280;46212;50.258;19.062;2022-07-22T04:09:26;98704.00;;;20.86;67.51
53340;BME280;46212;50.258;19.062;2022-07-22T04:11:51;98708.69;;;21.02;66.68
53340;BME280;46212;50.258;19.062;2022-07-22T04:14:17;98708.13;;;21.09;66.33
53340;BME280;46212;50.258;19.062;2022-07-22T04:16:43;98712.66;;;21.17;66.48
53340;BME280;46212;50.258;19.062;2022-07-22T04:19:11;98712.72;;;21.06;66.65
53340;BME280;46212;50.258;19.062;2022-07-22T04:21:37;98711.06;;;21.22;66.11
53340;BME280;46212;50.258;19.062;2022-07-22T04:24:02;98715.97;;;21.16;66.75
53340;BME280;46212;50.258;19.062;2022-07-22T04:26:27;98709.03;;;21.23;65.87
53340;BME280;46212;50.258;19.062;2022-07-22T04:28:53;98705.28;;;21.39;65.49
53340;BME280;46212;50.258;19.062;2022-07-22T04:31:18;98708.44;;;21.30;66.01
53340;BME280;46212;50.258;19.062;2022-07-22T04:33:43;98710.13;;;21.38;65.58
53340;BME280;46212;50.258;19.062;2022-07-22T04:36:08;98693.47;;;21.46;65.33
53340;BME280;46212;50.258;19.062;2022-07-22T04:38:34;98701.09;;;21.69;64.15
53340;BME280;46212;50.258;19.062;2022-07-22T04:40:59;98709.88;;;21.85;64.01
53340;BME280;46212;50.258;19.062;2022-07-22T04:43:24;98712.41;;;21.64;64.61
53340;BME280;46212;50.258;19.062;2022-07-22T04:45:49;98710.72;;;21.55;64.69
53340;BME280;46212;50.258;19.062;2022-07-22T04:48:15;98713.50;;;21.80;63.82
53340;BME280;46212;50.258;19.062;2022-07-22T04:50:40;98706.81;;;21.83;64.04
53340;BME280;46212;50.258;19.062;2022-07-22T04:53:06;98700.03;;;21.97;63.10
53340;BME280;46212;50.258;19.062;2022-07-22T04:55:31;98700.63;;;21.90;63.70
53340;BME280;46212;50.258;19.062;2022-07-22T04:57:56;98699.66;;;22.06;63.15
53340;BME280;46212;50.258;19.062;2022-07-22T05:00:21;98715.44;;;22.28;62.25
53340;BME280;46212;50.258;19.062;2022-07-22T05:02:47;98708.91;;;22.38;61.81
53340;BME280;46212;50.258;19.062;2022-07-22T05:05:12;98703.66;;;22.48;61.37
53340;BME280;46212;50.258;19.062;2022-07-22T05:07:37;98709.09;;;22.59;61.16
53340;BME280;46212;50.258;19.062;2022-07-22T05:10:03;98705.94;;;22.81;60.26
53340;BME280;46212;50.258;19.062;2022-07-22T05:12:29;98710.38;;;23.08;59.24
53340;BME280;46212;50.258;19.062;2022-07-22T05:14:54;98707.88;;;23.31;58.31
53340;BME280;46212;50.258;19.062;2022-07-22T05:17:19;98716.19;;;22.97;59.85
53340;BME280;46212;50.258;19.062;2022-07-22T05:19:44;98719.50;;;23.27;58.52
53340;BME280;46212;50.258;19.062;2022-07-22T05:22:10;98707.22;;;23.25;58.91
53340;BME280;46212;50.258;19.062;2022-07-22T05:24:35;98702.09;;;23.55;58.00
53340;BME280;46212;50.258;19.062;2022-07-22T05:27:02;98693.81;;;23.70;57.51
53340;BME280;46212;50.258;19.062;2022-07-22T05:29:27;98698.44;;;24.07;56.32
53340;BME280;46212;50.258;19.062;2022-07-22T05:31:52;98693.88;;;24.17;55.76
53340;BME280;46212;50.258;19.062;2022-07-22T05:34:17;98696.69;;;24.17;55.29
53340;BME280;46212;50.258;19.062;2022-07-22T05:36:43;98694.94;;;24.27;55.76
53340;BME280;46212;50.258;19.062;2022-07-22T05:39:08;98692.50;;;24.45;55.08
53340;BME280;46212;50.258;19.062;2022-07-22T05:41:33;98700.97;;;24.45;54.54
53340;BME280;46212;50.258;19.062;2022-07-22T05:43:59;98688.00;;;24.49;54.42
53340;BME280;46212;50.258;19.062;2022-07-22T05:46:24;98690.06;;;24.49;54.11
53340;BME280;46212;50.258;19.062;2022-07-22T05:48:49;98701.41;;;24.36;54.53
53340;BME280;46212;50.258;19.062;2022-07-22T05:51:15;98695.91;;;24.30;55.15
53340;BME280;46212;50.258;19.062;2022-07-22T05:53:40;98697.28;;;24.37;54.78
53340;BME280;46212;50.258;19.062;2022-07-22T05:56:06;98688.91;;;24.44;54.84
53340;BME280;46212;50.258;19.062;2022-07-22T05:58:32;98699.56;;;24.38;54.74
53340;BME280;46212;50.258;19.062;2022-07-22T06:00:57;98700.97;;;24.45;54.80
53340;BME280;46212;50.258;19.062;2022-07-22T06:03:23;98698.97;;;24.53;54.49
53340;BME280;46212;50.258;19.062;2022-07-22T06:05:48;98697.88;;;24.56;54.46
53340;BME280;46212;50.258;19.062;2022-07-22T06:08:14;98706.13;;;24.74;53.90
53340;BME280;46212;50.258;19.062;2022-07-22T06:10:39;98704.22;;;24.69;54.63
53340;BME280;46212;50.258;19.062;2022-07-22T06:13:04;98707.22;;;24.84;53.97
53340;BME280;46212;50.258;19.062;2022-07-22T06:15:29;98707.50;;;24.94;53.62
53340;BME280;46212;50.258;19.062;2022-07-22T06:17:55;98710.72;;;24.98;53.21
53340;BME280;46212;50.258;19.062;2022-07-22T06:20:20;98701.97;;;24.89;54.17
53340;BME280;46212;50.258;19.062;2022-07-22T06:22:45;98684.47;;;25.11;53.17
53340;BME280;46212;50.258;19.062;2022-07-22T06:25:10;98677.44;;;25.04;53.36
53340;BME280;46212;50.258;19.062;2022-07-22T06:27:35;98674.47;;;25.10;53.68
53340;BME280;46212;50.258;19.062;2022-07-22T06:30:01;98686.97;;;25.22;52.55
53340;BME280;46212;50.258;19.062;2022-07-22T06:32:26;98685.47;;;25.21;52.56
53340;BME280;46212;50.258;19.062;2022-07-22T06:34:51;98695.44;;;25.22;52.08
53340;BME280;46212;50.258;19.062;2022-07-22T06:37:17;98676.78;;;25.19;52.27
53340;BME280;46212;50.258;19.062;2022-07-22T06:39:42;98683.75;;;25.18;52.86
53340;BME280;46212;50.258;19.062;2022-07-22T06:42:07;98688.56;;;25.30;51.99
53340;BME280;46212;50.258;19.062;2022-07-22T06:44:32;98689.78;;;25.43;52.07
53340;BME280;46212;50.258;19.062;2022-07-22T06:46:58;98686.00;;;25.40;53.04
53340;BME280;46212;50.258;19.062;2022-07-22T06:49:23;98689.84;;;25.50;52.00
53340;BME280;46212;50.258;19.062;2022-07-22T06:51:48;98692.66;;;25.50;51.30
53340;BME280;46212;50.258;19.062;2022-07-22T06:54:13;98696.13;;;25.64;51.32
53340;BME280;46212;50.258;19.062;2022-07-22T06:56:39;98713.13;;;25.64;50.75
53340;BME280;46212;50.258;19.062;2022-07-22T06:59:04;98723.88;;;25.65;50.74
53340;BME280;46212;50.258;19.062;2022-07-22T07:01:29;98720.03;;;25.55;51.93
53340;BME280;46212;50.258;19.062;2022-07-22T07:03:54;98721.34;;;25.54;52.15
53340;BME280;46212;50.258;19.062;2022-07-22T07:06:20;98713.00;;;25.77;50.59
53340;BME280;46212;50.258;19.062;2022-07-22T07:08:45;98721.16;;;25.88;50.33
53340;BME280;46212;50.258;19.062;2022-07-22T07:11:10;98721.53;;;25.84;50.76
53340;BME280;46212;50.258;19.062;2022-07-22T07:13:35;98716.84;;;25.95;50.07
53340;BME280;46212;50.258;19.062;2022-07-22T07:16:01;98711.78;;;26.01;50.00
53340;BME280;46212;50.258;19.062;2022-07-22T07:18:26;98709.06;;;26.23;49.55
53340;BME280;46212;50.258;19.062;2022-07-22T07:20:51;98717.19;;;26.19;49.75
53340;BME280;46212;50.258;19.062;2022-07-22T07:23:16;98722.13;;;25.91;50.95
53340;BME280;46212;50.258;19.062;2022-07-22T07:25:41;98718.53;;;25.54;52.39
53340;BME280;46212;50.258;19.062;2022-07-22T07:28:07;98714.97;;;25.33;52.30
53340;BME280;46212;50.258;19.062;2022-07-22T07:30:32;98719.28;;;25.34;52.24
53340;BME280;46212;50.258;19.062;2022-07-22T07:32:58;98717.19;;;25.06;52.90
53340;BME280;46212;50.258;19.062;2022-07-22T07:35:25;98734.72;;;25.05;53.43
53340;BME280;46212;50.258;19.062;2022-07-22T07:37:51;98732.63;;;24.84;53.48
53340;BME280;46212;50.258;19.062;2022-07-22T07:40:16;98737.38;;;25.10;52.99
53340;BME280;46212;50.258;19.062;2022-07-22T07:42:41;98733.47;;;25.13;53.26
53340;BME280;46212;50.258;19.062;2022-07-22T07:45:07;98726.97;;;25.26;52.67
53340;BME280;46212;50.258;19.062;2022-07-22T07:47:32;98719.81;;;25.53;51.70
53340;BME280;46212;50.258;19.062;2022-07-22T07:49:57;98721.00;;;25.58;51.53
53340;BME280;46212;50.258;19.062;2022-07-22T07:52:25;98716.94;;;25.46;52.29
53340;BME280;46212;50.258;19.062;2022-07-22T07:54:50;98715.78;;;25.69;51.07
53340;BME280;46212;50.258;19.062;2022-07-22T07:57:16;98720.72;;;25.48;51.98
53340;BME280;46212;50.258;19.062;2022-07-22T07:59:41;98728.09;;;25.79;50.60
53340;BME280;46212;50.258;19.062;2022-07-22T08:02:06;98729.16;;;25.97;50.35
53340;BME280;46212;50.258;19.062;2022-07-22T08:04:31;98728.91;;;25.87;51.10
53340;BME280;46212;50.258;19.062;2022-07-22T08:06:57;98723.53;;;26.12;49.66
53340;BME280;46212;50.258;19.062;2022-07-22T08:09:22;98733.81;;;25.87;50.66
53340;BME280;46212;50.258;19.062;2022-07-22T08:11:48;98735.44;;;25.75;51.52
53340;BME280;46212;50.258;19.062;2022-07-22T08:14:13;98731.84;;;25.74;51.38
53340;BME280;46212;50.258;19.062;2022-07-22T08:16:38;98727.41;;;25.94;51.09
53340;BME280;46212;50.258;19.062;2022-07-22T08:19:03;98742.19;;;26.08;50.55
53340;BME280;46212;50.258;19.062;2022-07-22T08:21:29;98738.19;;;25.96;50.57
53340;BME280;46212;50.258;19.062;2022-07-22T08:23:54;98729.16;;;26.05;50.70
53340;BME280;46212;50.258;19.062;2022-07-22T08:26:19;98730.97;;;25.87;50.85
53340;BME280;46212;50.258;19.062;2022-07-22T08:28:45;98735.91;;;25.58;51.88
53340;BME280;46212;50.258;19.062;2022-07-22T08:31:10;98733.03;;;25.86;51.28
53340;BME280;46212;50.258;19.062;2022-07-22T08:33:36;98735.53;;;25.90;51.41
53340;BME280;46212;50.258;19.062;2022-07-22T08:36:01;98744.25;;;26.07;50.71
53340;BME280;46212;50.258;19.062;2022-07-22T08:38:27;98730.22;;;26.22;49.86
53340;BME280;46212;50.258;19.062;2022-07-22T08:40:53;98737.50;;;25.74;50.64
53340;BME280;46212;50.258;19.062;2022-07-22T08:43:20;98733.81;;;25.95;50.78
53340;BME280;46212;50.258;19.062;2022-07-22T08:45:45;98740.28;;;26.03;50.19
53340;BME280;46212;50.258;19.062;2022-07-22T08:48:11;98733.53;;;26.13;50.61
53340;BME280;46212;50.258;19.062;2022-07-22T08:50:36;98741.94;;;26.26;50.57
53340;BME280;46212;50.258;19.062;2022-07-22T08:53:02;98730.47;;;26.39;49.59
53340;BME280;46212;50.258;19.062;2022-07-22T08:55:27;98734.38;;;26.29;49.67
53340;BME280;46212;50.258;19.062;2022-07-22T08:57:52;98739.53;;;26.38;49.56
53340;BME280;46212;50.258;19.062;2022-07-22T09:00:19;98745.25;;;26.53;49.13
53340;BME280;46212;50.258;19.062;2022-07-22T09:02:44;98740.50;;;26.56;49.45
53340;BME280;46212;50.258;19.062;2022-07-22T09:05:11;98746.19;;;26.56;49.04
53340;BME280;46212;50.258;19.062;2022-07-22T09:07:39;98748.84;;;26.61;49.29
53340;BME280;46212;50.258;19.062;2022-07-22T09:10:06;98741.09;;;26.54;49.90
53340;BME280;46212;50.258;19.062;2022-07-22T09:12:32;98740.41;;;26.84;48.68
53340;BME280;46212;50.258;19.062;2022-07-22T09:14:59;98740.63;;;27.01;47.41
53340;BME280;46212;50.258;19.062;2022-07-22T09:17:29;98741.00;;;27.13;47.17
53340;BME280;46212;50.258;19.062;2022-07-22T09:19:59;98748.19;;;27.14;46.77
53340;BME280;46212;50.258;19.062;2022-07-22T09:22:34;98735.69;;;27.24;46.87
53340;BME280;46212;50.258;19.062;2022-07-22T09:27:44;98743.06;;;27.35;47.00
53340;BME280;46212;50.258;19.062;2022-07-22T09:30:23;98732.28;;;27.41;45.95
53340;BME280;46212;50.258;19.062;2022-07-22T09:32:49;98739.31;;;27.48;46.37
53340;BME280;46212;50.258;19.062;2022-07-22T09:35:14;98734.16;;;27.69;45.18
53340;BME280;46212;50.258;19.062;2022-07-22T09:37:54;98737.78;;;27.54;45.61
53340;BME280;46212;50.258;19.062;2022-07-22T09:40:20;98737.03;;;27.23;46.36
53340;BME280;46212;50.258;19.062;2022-07-22T09:42:47;98742.31;;;27.34;46.25
53340;BME280;46212;50.258;19.062;2022-07-22T09:45:13;98734.97;;;27.24;46.52
53340;BME280;46212;50.258;19.062;2022-07-22T09:47:42;98737.78;;;27.47;46.60
53340;BME280;46212;50.258;19.062;2022-07-22T09:50:40;98727.75;;;27.61;46.13
53340;BME280;46212;50.258;19.062;2022-07-22T09:52:59;98729.56;;;27.96;45.56
53340;BME280;46212;50.258;19.062;2022-07-22T09:55:25;98731.22;;;28.22;44.62
53340;BME280;46212;50.258;19.062;2022-07-22T09:57:51;98733.03;;;28.34;43.94
53340;BME280;46212;50.258;19.062;2022-07-22T10:00:18;98729.72;;;28.53;44.28
53340;BME280;46212;50.258;19.062;2022-07-22T10:02:54;98732.84;;;28.72;42.70
53340;BME280;46212;50.258;19.062;2022-07-22T10:05:26;98727.03;;;28.95;42.39
53340;BME280;46212;50.258;19.062;2022-07-22T10:07:52;98735.31;;;29.00;42.85
53340;BME280;46212;50.258;19.062;2022-07-22T10:10:20;98729.75;;;29.10;42.65
53340;BME280;46212;50.258;19.062;2022-07-22T10:12:47;98722.19;;;29.05;42.34
53340;BME280;46212;50.258;19.062;2022-07-22T10:15:12;98732.59;;;28.85;41.46
53340;BME280;46212;50.258;19.062;2022-07-22T10:17:38;98727.41;;;28.59;40.83
53340;BME280;46212;50.258;19.062;2022-07-22T10:20:05;98720.66;;;28.47;42.33
53340;BME280;46212;50.258;19.062;2022-07-22T10:25:11;98722.56;;;28.77;42.61
53340;BME280;46212;50.258;19.062;2022-07-22T10:27:43;98718.97;;;28.76;41.78
53340;BME280;46212;50.258;19.062;2022-07-22T10:30:09;98724.19;;;28.95;41.99
53340;BME280;46212;50.258;19.062;2022-07-22T10:32:34;98729.34;;;28.89;41.09
53340;BME280;46212;50.258;19.062;2022-07-22T10:45:18;98723.19;;;29.67;39.37
53340;BME280;46212;50.258;19.062;2022-07-22T10:48:05;98717.31;;;29.65;39.68
53340;BME280;46212;50.258;19.062;2022-07-22T10:53:15;98710.41;;;29.92;39.52
53340;BME280;46212;50.258;19.062;2022-07-22T10:55:58;98709.53;;;29.48;39.58
53340;BME280;46212;50.258;19.062;2022-07-22T11:01:05;98703.44;;;30.03;38.85
53340;BME280;46212;50.258;19.062;2022-07-22T11:03:31;98700.06;;;30.14;38.97
53340;BME280;46212;50.258;19.062;2022-07-22T11:05:57;98697.38;;;30.16;38.61
53340;BME280;46212;50.258;19.062;2022-07-22T11:08:37;98700.03;;;30.31;37.32
53340;BME280;46212;50.258;19.062;2022-07-22T11:11:02;98706.16;;;30.28;37.29
53340;BME280;46212;50.258;19.062;2022-07-22T11:13:33;98708.41;;;30.46;37.62
53340;BME280;46212;50.258;19.062;2022-07-22T11:16:15;98702.84;;;30.48;37.21
53340;BME280;46212;50.258;19.062;2022-07-22T11:18:59;98698.16;;;29.99;39.00
53340;BME280;46212;50.258;19.062;2022-07-22T11:21:26;98698.13;;;30.17;38.90
53340;BME280;46212;50.258;19.062;2022-07-22T11:23:52;98699.28;;;30.31;38.96
53340;BME280;46212;50.258;19.062;2022-07-22T11:26:20;98697.63;;;30.28;38.73
53340;BME280;46212;50.258;19.062;2022-07-22T11:28:49;98685.81;;;30.31;39.08
53340;BME280;46212;50.258;19.062;2022-07-22T11:31:15;98685.19;;;30.33;38.73
53340;BME280;46212;50.258;19.062;2022-07-22T11:33:41;98685.31;;;30.25;39.26
53340;BME280;46212;50.258;19.062;2022-07-22T11:36:07;98689.31;;;30.39;38.12
53340;BME280;46212;50.258;19.062;2022-07-22T11:38:39;98684.38;;;30.40;37.79
53340;BME280;46212;50.258;19.062;2022-07-22T11:41:05;98686.28;;;30.37;37.88
53340;BME280;46212;50.258;19.062;2022-07-22T11:43:37;98682.00;;;30.29;37.12
53340;BME280;46212;50.258;19.062;2022-07-22T11:46:02;98680.03;;;30.22;37.58
53340;BME280;46212;50.258;19.062;2022-07-22T11:48:28;98679.72;;;30.44;37.20
53340;BME280;46212;50.258;19.062;2022-07-22T11:50:58;98683.72;;;30.59;36.98
53340;BME280;46212;50.258;19.062;2022-07-22T11:53:24;98684.81;;;30.63;35.37
53340;BME280;46212;50.258;19.062;2022-07-22T11:55:49;98668.22;;;30.79;35.75
53340;BME280;46212;50.258;19.062;2022-07-22T11:58:14;98676.16;;;31.07;36.51
53340;BME280;46212;50.258;19.062;2022-07-22T12:00:40;98670.03;;;31.30;36.71
53340;BME280;46212;50.258;19.062;2022-07-22T12:03:06;98670.66;;;31.38;34.29
53340;BME280;46212;50.258;19.062;2022-07-22T12:05:31;98666.34;;;31.66;35.04
53340;BME280;46212;50.258;19.062;2022-07-22T12:07:56;98655.81;;;31.87;34.80
53340;BME280;46212;50.258;19.062;2022-07-22T12:10:22;98666.78;;;31.91;34.90
53340;BME280;46212;50.258;19.062;2022-07-22T12:12:47;98657.31;;;32.07;34.96
53340;BME280;46212;50.258;19.062;2022-07-22T12:15:13;98667.03;;;31.37;36.15
53340;BME280;46212;50.258;19.062;2022-07-22T12:17:38;98668.16;;;31.61;36.07
53340;BME280;46212;50.258;19.062;2022-07-22T12:20:10;98655.66;;;31.66;35.19
53340;BME280;46212;50.258;19.062;2022-07-22T12:22:36;98655.09;;;31.77;34.47
53340;BME280;46212;50.258;19.062;2022-07-22T12:25:09;98646.34;;;31.94;34.19
53340;BME280;46212;50.258;19.062;2022-07-22T12:27:34;98648.44;;;32.03;33.90
53340;BME280;46212;50.258;19.062;2022-07-22T12:29:59;98641.22;;;32.22;34.06
53340;BME280;46212;50.258;19.062;2022-07-22T12:32:26;98644.13;;;32.62;33.67
53340;BME280;46212;50.258;19.062;2022-07-22T12:35:01;98636.22;;;32.82;33.04
53340;BME280;46212;50.258;19.062;2022-07-22T12:40:05;98645.09;;;32.76;33.03
53340;BME280;46212;50.258;19.062;2022-07-22T12:42:36;98631.94;;;32.92;33.20
53340;BME280;46212;50.258;19.062;2022-07-22T12:52:49;98630.78;;;32.36;32.88
53340;BME280;46212;50.258;19.062;2022-07-22T12:55:14;98632.41;;;32.89;32.70
53340;BME280;46212;50.258;19.062;2022-07-22T12:57:40;98625.13;;;33.28;31.77
53340;BME280;46212;50.258;19.062;2022-07-22T13:00:05;98621.31;;;33.35;31.74
53340;BME280;46212;50.258;19.062;2022-07-22T13:02:30;98618.84;;;33.41;31.83
53340;BME280;46212;50.258;19.062;2022-07-22T13:04:56;98624.69;;;34.19;31.11
53340;BME280;46212;50.258;19.062;2022-07-22T13:07:21;98608.53;;;34.46;30.59
53340;BME280;46212;50.258;19.062;2022-07-22T13:09:46;98616.31;;;34.11;30.90
53340;BME280;46212;50.258;19.062;2022-07-22T13:12:11;98609.69;;;34.08;31.22
53340;BME280;46212;50.258;19.062;2022-07-22T13:14:37;98600.78;;;34.37;30.11
53340;BME280;46212;50.258;19.062;2022-07-22T13:17:03;98606.19;;;34.66;29.87